Time;durP1;ratioP1;P1;durP2;ratioP2;P2;SDS_P1;SDS_P2;PMS_P1;PMS_P2;Temp;Humidity;BMP_temperature;BMP_pressure;BME280_temperature;BME280_humidity;BME280_pressure;Samples;Min_cycle;Max_cycle;Signal;HPM_P1;HPM_P2
2022/03/06 00:00:26;;;;;;;9.70;5.47;;;6.90;1.00;;;;;;5088972;28;20441;-79
2022/03/06 00:02:55;;;;;;;9.87;6.30;;;6.80;1.00;;;;;;5084899;28;20459;-78
2022/03/06 00:05:23;;;;;;;9.80;5.73;;;6.90;1.00;;;;;;5093607;28;20446;-79
2022/03/06 00:07:55;;;;;;;6.97;4.80;;;6.70;1.00;;;;;;5088903;28;20478;-77
2022/03/06 00:10:23;;;;;;;8.63;5.70;;;6.70;1.00;;;;;;5092287;28;20461;-77
2022/03/06 00:12:51;;;;;;;8.50;5.27;;;6.80;1.00;;;;;;5083901;28;20454;-79
2022/03/06 00:15:21;;;;;;;8.10;5.27;;;6.80;1.00;;;;;;5091562;28;20458;-80
2022/03/06 00:17:55;;;;;;;9.60;6.13;;;6.70;1.00;;;;;;5086200;28;20478;-79
2022/03/06 00:20:24;;;;;;;10.07;5.37;;;6.70;1.00;;;;;;5089516;28;20542;-79
2022/03/06 00:22:54;;;;;;;9.53;5.10;;;6.60;1.00;;;;;;5086080;28;20965;-79
2022/03/06 00:25:22;;;;;;;7.90;4.87;;;6.90;1.00;;;;;;5077766;28;20446;-79
2022/03/06 00:27:50;;;;;;;9.67;5.70;;;6.60;1.00;;;;;;5093451;28;20437;-78
2022/03/06 00:30:19;;;;;;;8.37;4.97;;;6.50;1.00;;;;;;5096245;28;20442;-78
2022/03/06 00:32:47;;;;;;;7.37;4.37;;;6.60;1.00;;;;;;5091345;27;20991;-77
2022/03/06 00:35:15;;;;;;;11.40;5.87;;;6.60;1.00;;;;;;5088559;28;20847;-79
2022/03/06 00:37:43;;;;;;;10.23;5.33;;;6.60;1.00;;;;;;5093627;28;20506;-78
2022/03/06 00:40:13;;;;;;;7.03;4.40;;;6.60;1.00;;;;;;5093620;28;20461;-79
2022/03/06 00:42:41;;;;;;;9.17;5.90;;;6.60;1.00;;;;;;5089631;28;20482;-78
2022/03/06 00:45:10;;;;;;;9.17;4.93;;;6.80;1.00;;;;;;5088583;28;20446;-79
2022/03/06 00:47:38;;;;;;;10.80;6.00;;;6.70;1.00;;;;;;5086871;28;20430;-78
2022/03/06 00:50:07;;;;;;;8.93;4.77;;;6.70;1.00;;;;;;5090865;28;20451;-78
2022/03/06 00:52:36;;;;;;;8.63;5.90;;;6.70;1.00;;;;;;5085624;28;20460;-78
2022/03/06 00:55:04;;;;;;;7.27;4.80;;;6.60;1.00;;;;;;5088751;28;20531;-79
2022/03/06 00:57:34;;;;;;;11.83;5.33;;;6.60;1.00;;;;;;5086465;28;20538;-78
2022/03/06 01:00:04;;;;;;;10.50;5.60;;;6.60;1.00;;;;;;5090661;28;20452;-79
2022/03/06 01:02:32;;;;;;;10.60;5.60;;;6.60;1.00;;;;;;5088943;28;20534;-78
2022/03/06 01:05:01;;;;;;;6.90;5.17;;;6.60;1.00;;;;;;5084189;28;20449;-77
2022/03/06 01:07:29;;;;;;;7.30;4.77;;;6.60;1.00;;;;;;5082742;28;20470;-78
2022/03/06 01:09:57;;;;;;;10.37;6.00;;;6.70;1.00;;;;;;5085138;28;20439;-79
2022/03/06 01:12:25;;;;;;;9.87;5.33;;;6.80;1.00;;;;;;5081283;28;20458;-79
2022/03/06 01:14:55;;;;;;;10.03;4.87;;;6.60;1.00;;;;;;5085128;28;21050;-79
2022/03/06 01:17:23;;;;;;;8.13;4.93;;;6.50;1.00;;;;;;5082639;28;20532;-78
2022/03/06 01:19:51;;;;;;;11.13;5.03;;;6.50;1.00;;;;;;5092004;28;21035;-78
2022/03/06 01:22:19;;;;;;;7.07;4.00;;;6.80;1.00;;;;;;5087435;28;21158;-77
2022/03/06 01:24:48;;;;;;;9.63;5.63;;;6.40;1.00;;;;;;5079690;28;20482;-77
2022/03/06 01:27:16;;;;;;;8.03;4.83;;;6.40;1.00;;;;;;5090421;28;20481;-78
2022/03/06 01:29:44;;;;;;;8.30;5.13;;;6.50;1.00;;;;;;5093009;28;20497;-78
2022/03/06 01:32:14;;;;;;;9.50;6.00;;;6.40;1.00;;;;;;5089516;28;20446;-77
2022/03/06 01:34:42;;;;;;;8.70;5.77;;;6.40;1.00;;;;;;5091297;28;20460;-79
2022/03/06 01:37:10;;;;;;;8.47;5.80;;;6.40;1.00;;;;;;5084448;28;20474;-78
2022/03/06 01:39:38;;;;;;;11.20;5.40;;;6.40;1.00;;;;;;5088170;28;20454;-78
2022/03/06 01:42:06;;;;;;;8.07;5.20;;;6.50;1.00;;;;;;5089210;28;20876;-79
2022/03/06 01:44:35;;;;;;;7.87;5.10;;;6.40;1.00;;;;;;5081933;28;20504;-78
2022/03/06 01:47:03;;;;;;;9.37;6.10;;;6.40;1.00;;;;;;5092110;28;20476;-79
2022/03/06 01:49:33;;;;;;;8.47;4.70;;;6.40;1.00;;;;;;5087841;28;20457;-77
2022/03/06 01:52:01;;;;;;;10.87;5.57;;;6.40;1.00;;;;;;5093820;28;20458;-79
2022/03/06 01:54:29;;;;;;;9.73;5.10;;;6.60;1.00;;;;;;5094014;28;20512;-79
2022/03/06 01:56:57;;;;;;;7.80;5.00;;;6.30;1.00;;;;;;5089353;28;20473;-77
2022/03/06 01:59:25;;;;;;;11.00;4.30;;;6.40;1.00;;;;;;5089013;28;20485;-78
2022/03/06 02:01:54;;;;;;;5.87;4.10;;;6.50;1.00;;;;;;5085835;28;20450;-78
2022/03/06 02:04:22;;;;;;;9.23;6.03;;;6.40;1.00;;;;;;5087056;28;20457;-78
2022/03/06 02:06:52;;;;;;;11.23;5.87;;;6.20;1.00;;;;;;5087340;28;21346;-79
2022/03/06 02:09:20;;;;;;;10.70;5.70;;;6.20;1.00;;;;;;5085611;28;20462;-78
2022/03/06 02:12:18;;;;;;;8.80;5.40;;;6.10;1.00;;;;;;5082852;28;20458;-77
2022/03/06 02:14:36;;;;;;;5.47;4.53;;;6.10;1.00;;;;;;5082960;28;20454;-78
2022/03/06 02:17:05;;;;;;;11.30;5.28;;;6.10;1.00;;;;;;5091689;28;20461;-79
2022/03/06 02:19:50;;;;;;;9.77;4.90;;;6.10;1.00;;;;;;5084102;28;20722;-79
2022/03/06 02:22:19;;;;;;;7.93;4.43;;;6.10;1.00;;;;;;5082955;28;20454;-79
2022/03/06 02:24:48;;;;;;;8.90;6.63;;;6.00;1.00;;;;;;5087836;28;20515;-79
2022/03/06 02:27:16;;;;;;;8.85;5.40;;;6.10;1.00;;;;;;5081805;28;20480;-78
2022/03/06 02:29:45;;;;;;;11.35;5.57;;;6.00;1.00;;;;;;5088322;28;20196;-78
2022/03/06 02:32:16;;;;;;;8.85;5.43;;;6.20;1.00;;;;;;5092819;28;20244;-78
2022/03/06 02:34:46;;;;;;;7.43;5.07;;;6.00;1.00;;;;;;5091931;28;21652;-78
2022/03/06 02:37:17;;;;;;;8.43;4.90;;;6.00;1.00;;;;;;5096052;28;20271;-79
2022/03/06 02:39:47;;;;;;;8.70;4.93;;;6.00;1.00;;;;;;5088249;27;20219;-78
2022/03/06 02:42:25;;;;;;;10.77;5.85;;;6.20;1.00;;;;;;5089571;28;20442;-79
2022/03/06 02:44:53;;;;;;;10.60;5.17;;;5.90;1.00;;;;;;5087479;28;20652;-78
2022/03/06 02:47:21;;;;;;;9.00;4.93;;;5.90;1.00;;;;;;5088183;28;20478;-78
2022/03/06 02:49:50;;;;;;;8.70;5.47;;;5.90;1.00;;;;;;5079275;28;20193;-79
2022/03/06 02:52:18;;;;;;;8.00;5.22;;;5.90;1.00;;;;;;5089567;28;20507;-77
2022/03/06 02:54:48;;;;;;;7.97;5.10;;;5.80;1.00;;;;;;5085697;28;20622;-78
2022/03/06 02:57:16;;;;;;;11.63;7.20;;;5.80;1.00;;;;;;5086048;28;20469;-79
2022/03/06 02:59:44;;;;;;;13.40;7.10;;;5.70;1.00;;;;;;5084147;28;20473;-79
2022/03/06 03:02:12;;;;;;;9.73;6.60;;;5.70;1.00;;;;;;5091370;28;20196;-78
2022/03/06 03:04:41;;;;;;;9.73;6.32;;;5.60;1.00;;;;;;5075263;28;20523;-78
2022/03/06 03:07:09;;;;;;;10.70;6.03;;;5.60;1.00;;;;;;5090864;28;20690;-79
2022/03/06 03:09:38;;;;;;;10.80;6.15;;;5.80;1.00;;;;;;5089276;28;20203;-79
2022/03/06 03:12:09;;;;;;;9.15;5.25;;;5.50;1.00;;;;;;5087214;28;20196;-79
2022/03/06 03:14:37;;;;;;;10.95;5.60;;;5.60;1.00;;;;;;5088572;28;20234;-78
2022/03/06 03:17:06;;;;;;;11.23;5.68;;;5.60;1.00;;;;;;5087062;28;20637;-79
2022/03/06 03:19:34;;;;;;;8.73;6.25;;;5.70;1.00;;;;;;5086660;28;20335;-79
2022/03/06 03:22:03;;;;;;;6.50;5.22;;;5.70;1.00;;;;;;5086658;28;20292;-79
2022/03/06 03:24:31;;;;;;;13.35;6.15;;;5.60;1.00;;;;;;5082048;28;20279;-79
2022/03/06 03:26:59;;;;;;;6.40;5.05;;;5.50;1.00;;;;;;5083145;28;20216;-79
2022/03/06 03:29:29;;;;;;;8.90;5.32;;;5.50;1.00;;;;;;5088261;28;20202;-79
2022/03/06 03:31:57;;;;;;;10.30;5.03;;;5.50;1.00;;;;;;5086665;28;20571;-78
2022/03/06 03:34:26;;;;;;;10.43;5.80;;;5.70;1.00;;;;;;5077769;28;20739;-79
2022/03/06 03:36:54;;;;;;;9.07;4.88;;;5.50;1.00;;;;;;5075948;28;20282;-78
2022/03/06 03:39:22;;;;;;;8.82;5.03;;;5.50;1.00;;;;;;5075904;28;20261;-79
2022/03/06 03:41:50;;;;;;;9.02;5.47;;;5.50;1.00;;;;;;5075114;28;20207;-79
2022/03/06 03:44:19;;;;;;;7.55;5.15;;;5.50;1.00;;;;;;5084603;28;20196;-78
2022/03/06 03:46:48;;;;;;;8.30;4.60;;;5.40;1.00;;;;;;5085330;28;20223;-77
2022/03/06 03:49:16;;;;;;;10.77;5.93;;;5.40;1.00;;;;;;5083374;28;20612;-78
2022/03/06 03:51:45;;;;;;;9.20;5.37;;;5.50;1.00;;;;;;5089539;28;20211;-78
2022/03/06 03:54:13;;;;;;;10.65;5.47;;;5.60;1.00;;;;;;5081540;28;20438;-78
2022/03/06 03:56:42;;;;;;;10.38;5.97;;;5.50;1.00;;;;;;5087400;28;20251;-80
2022/03/06 03:59:11;;;;;;;10.65;5.82;;;5.80;1.00;;;;;;5082569;28;20222;-79
2022/03/06 04:01:39;;;;;;;10.10;5.40;;;5.50;1.00;;;;;;5090592;28;20217;-78
2022/03/06 04:04:09;;;;;;;7.85;4.88;;;5.40;1.00;;;;;;5088701;28;20273;-78
2022/03/06 04:06:37;;;;;;;9.77;5.70;;;5.40;1.00;;;;;;5091011;28;20223;-78
2022/03/06 04:09:05;;;;;;;7.72;5.07;;;5.40;1.00;;;;;;5086413;28;20198;-78
2022/03/06 04:11:33;;;;;;;9.45;5.70;;;5.30;1.00;;;;;;5089204;28;20254;-78
2022/03/06 04:14:02;;;;;;;9.35;5.40;;;5.30;1.00;;;;;;5089628;28;20234;-79
2022/03/06 04:16:30;;;;;;;14.23;5.63;;;5.30;1.00;;;;;;5080541;28;20215;-78
2022/03/06 04:18:58;;;;;;;8.10;5.18;;;5.30;1.00;;;;;;5088339;28;20526;-78
2022/03/06 04:21:28;;;;;;;11.48;6.45;;;5.40;1.00;;;;;;5091598;28;20203;-78
2022/03/06 04:23:56;;;;;;;7.55;4.75;;;5.30;1.00;;;;;;5084498;28;20259;-78
2022/03/06 04:26:24;;;;;;;9.60;5.93;;;5.30;1.00;;;;;;5088456;28;20285;-78
2022/03/06 04:28:52;;;;;;;12.77;6.03;;;5.30;1.00;;;;;;5082643;28;20227;-78
2022/03/06 04:31:20;;;;;;;10.20;5.72;;;5.20;1.00;;;;;;5088758;28;20200;-78
2022/03/06 04:33:48;;;;;;;8.55;4.93;;;5.30;1.00;;;;;;5091655;28;20283;-77
2022/03/06 04:36:17;;;;;;;12.15;6.30;;;5.20;1.00;;;;;;5092723;28;20222;-78
2022/03/06 04:38:46;;;;;;;8.98;4.85;;;5.30;1.00;;;;;;5088456;28;20191;-77
2022/03/06 04:41:15;;;;;;;7.55;5.65;;;5.30;1.00;;;;;;5089892;28;20187;-76
2022/03/06 04:43:44;;;;;;;9.15;5.32;;;5.50;1.00;;;;;;5083655;28;20200;-79
2022/03/06 04:46:13;;;;;;;12.82;6.50;;;5.30;1.00;;;;;;5084440;28;20212;-78
2022/03/06 04:48:41;;;;;;;9.75;6.00;;;5.20;1.00;;;;;;5090343;28;20218;-78
2022/03/06 04:51:09;;;;;;;9.40;5.80;;;5.10;1.00;;;;;;5084997;28;20245;-79
2022/03/06 04:53:37;;;;;;;8.40;5.75;;;5.00;1.00;;;;;;5091535;28;20551;-78
2022/03/06 04:56:08;;;;;;;8.80;6.00;;;5.30;1.00;;;;;;5090336;28;20556;-78
2022/03/06 04:58:36;;;;;;;9.80;6.55;;;5.20;1.00;;;;;;5090215;28;20207;-78
2022/03/06 05:01:04;;;;;;;6.10;4.47;;;5.20;1.00;;;;;;5092677;28;20216;-78
2022/03/06 05:03:33;;;;;;;11.95;6.20;;;5.20;1.00;;;;;;5089570;28;20198;-79
2022/03/06 05:06:01;;;;;;;9.15;6.25;;;5.20;1.00;;;;;;5094172;28;20216;-79
2022/03/06 05:08:29;;;;;;;7.25;4.45;;;5.20;1.00;;;;;;5089612;28;20196;-78
2022/03/06 05:10:57;;;;;;;10.82;5.80;;;5.20;1.00;;;;;;5090648;28;20235;-78
2022/03/06 05:13:27;;;;;;;11.27;5.70;;;5.20;1.00;;;;;;5086482;28;20714;-79
2022/03/06 05:15:55;;;;;;;8.90;6.13;;;5.20;1.00;;;;;;5090398;28;21029;-78
2022/03/06 05:18:23;;;;;;;6.57;5.68;;;5.20;1.00;;;;;;5093275;28;20274;-79
2022/03/06 05:20:51;;;;;;;8.70;5.18;;;5.10;1.00;;;;;;5083821;28;20223;-79
2022/03/06 05:23:20;;;;;;;9.13;6.60;;;5.20;1.00;;;;;;5102881;27;20257;-78
2022/03/06 05:25:50;;;;;;;10.32;5.93;;;5.10;1.00;;;;;;5089238;28;20239;-78
2022/03/06 05:28:18;;;;;;;7.93;4.78;;;5.10;1.00;;;;;;5089107;28;20257;-79
2022/03/06 05:30:48;;;;;;;9.02;5.82;;;5.10;1.00;;;;;;5089392;28;20782;-78
2022/03/06 05:33:16;;;;;;;12.07;6.78;;;5.30;1.00;;;;;;5088583;28;20997;-78
2022/03/06 05:35:45;;;;;;;10.30;5.90;;;5.00;1.00;;;;;;5082113;28;20303;-79
2022/03/06 05:38:13;;;;;;;10.93;7.38;;;5.10;1.00;;;;;;5085215;28;20286;-78
2022/03/06 05:40:41;;;;;;;9.70;5.43;;;5.10;1.00;;;;;;5096338;28;20814;-78
2022/03/06 05:43:09;;;;;;;10.52;5.40;;;5.10;1.00;;;;;;5088958;28;20188;-78
2022/03/06 05:45:37;;;;;;;10.15;5.57;;;5.10;1.00;;;;;;5084211;28;20269;-77
2022/03/06 05:48:07;;;;;;;9.05;5.28;;;5.10;1.00;;;;;;5090102;28;20202;-78
2022/03/06 05:50:36;;;;;;;9.20;5.45;;;5.10;1.00;;;;;;5089333;28;20317;-79
2022/03/06 05:53:04;;;;;;;10.35;6.57;;;5.10;1.00;;;;;;5084322;28;20207;-79
2022/03/06 05:55:32;;;;;;;8.65;6.38;;;5.30;1.00;;;;;;5080674;28;20234;-78
2022/03/06 05:58:00;;;;;;;8.20;5.63;;;5.00;1.00;;;;;;5077689;28;20212;-78
2022/03/06 06:00:29;;;;;;;9.77;5.53;;;5.00;1.00;;;;;;5083025;28;20267;-78
2022/03/06 06:02:57;;;;;;;10.38;6.18;;;5.00;1.00;;;;;;5078539;28;20207;-77
2022/03/06 06:05:27;;;;;;;7.35;4.20;;;5.00;1.00;;;;;;5088384;28;20197;-79
2022/03/06 06:07:55;;;;;;;10.80;6.65;;;5.10;1.00;;;;;;5090273;28;20212;-78
2022/03/06 06:10:23;;;;;;;9.90;4.90;;;5.10;1.00;;;;;;5089853;28;20231;-78
2022/03/06 06:12:52;;;;;;;13.68;5.38;;;5.10;1.00;;;;;;5089482;28;20192;-79
2022/03/06 06:15:20;;;;;;;9.27;6.18;;;5.00;1.00;;;;;;5081907;28;20233;-78
2022/03/06 06:17:48;;;;;;;10.55;5.80;;;5.00;1.00;;;;;;5090202;28;20209;-79
2022/03/06 06:20:16;;;;;;;10.18;5.97;;;5.10;1.00;;;;;;5079484;28;20590;-78
2022/03/06 06:22:46;;;;;;;10.40;6.30;;;5.10;1.00;;;;;;5089211;28;20199;-79
2022/03/06 06:25:14;;;;;;;7.53;5.28;;;5.10;1.00;;;;;;5083558;28;20210;-77
2022/03/06 06:27:42;;;;;;;10.25;5.93;;;5.00;1.00;;;;;;5088225;28;20888;-77
2022/03/06 06:30:11;;;;;;;10.02;5.15;;;5.10;1.00;;;;;;5084132;28;20318;-78
2022/03/06 06:32:39;;;;;;;11.85;6.60;;;5.10;1.00;;;;;;5089426;28;20204;-78
2022/03/06 06:35:08;;;;;;;8.48;5.65;;;5.10;1.00;;;;;;5089074;28;20218;-79
2022/03/06 06:37:36;;;;;;;11.70;7.05;;;5.10;1.00;;;;;;5085830;28;20206;-79
2022/03/06 06:40:07;;;;;;;8.65;5.30;;;5.10;1.00;;;;;;5101852;28;20268;-78
2022/03/06 06:42:36;;;;;;;10.02;5.55;;;5.20;1.00;;;;;;5086334;28;20235;-79
2022/03/06 06:45:04;;;;;;;9.90;5.93;;;5.20;1.00;;;;;;5095211;28;20190;-80
2022/03/06 06:47:32;;;;;;;10.13;5.45;;;5.20;1.00;;;;;;5092841;28;20207;-78
2022/03/06 06:50:01;;;;;;;10.48;6.15;;;5.20;1.00;;;;;;5088474;28;20201;-78
2022/03/06 06:52:29;;;;;;;10.35;5.43;;;5.40;1.00;;;;;;5080332;28;20196;-79
2022/03/06 06:54:57;;;;;;;9.50;5.93;;;5.40;1.00;;;;;;5089013;28;20220;-78
2022/03/06 06:57:27;;;;;;;9.93;6.00;;;5.40;1.00;;;;;;5083095;28;20314;-79
2022/03/06 06:59:55;;;;;;;10.30;7.27;;;5.40;1.00;;;;;;5091458;28;20195;-79
2022/03/06 07:02:23;;;;;;;11.93;7.35;;;5.40;1.00;;;;;;5085917;28;20865;-79
2022/03/06 07:04:57;;;;;;;11.27;6.78;;;5.30;1.00;;;;;;5088265;28;20451;-79
2022/03/06 07:07:25;;;;;;;12.88;5.85;;;5.30;1.00;;;;;;5083736;28;20219;-79
2022/03/06 07:09:53;;;;;;;12.13;6.70;;;5.40;1.00;;;;;;5088773;28;20200;-75
2022/03/06 07:12:21;;;;;;;9.38;6.35;;;5.40;1.00;;;;;;5086644;28;20196;-76
2022/03/06 07:14:51;;;;;;;10.18;5.35;;;5.50;1.00;;;;;;5087764;28;20195;-78
2022/03/06 07:17:19;;;;;;;8.73;5.60;;;5.50;1.00;;;;;;5088141;28;20227;-75
2022/03/06 07:19:47;;;;;;;9.88;5.93;;;5.50;1.00;;;;;;5085045;28;20220;-75
2022/03/06 07:22:15;;;;;;;11.70;6.45;;;5.60;1.00;;;;;;5087842;28;20230;-76
2022/03/06 07:24:44;;;;;;;8.00;5.27;;;5.70;1.00;;;;;;5087156;28;20198;-75
2022/03/06 07:27:12;;;;;;;8.57;6.65;;;5.60;1.00;;;;;;5085494;28;20511;-74
2022/03/06 07:29:40;;;;;;;12.02;6.97;;;5.70;1.00;;;;;;5079763;28;20200;-75
2022/03/06 07:32:10;;;;;;;10.15;6.50;;;5.80;1.00;;;;;;5085336;28;20252;-76
2022/03/06 07:34:38;;;;;;;8.90;5.25;;;5.80;1.00;;;;;;5084923;28;20203;-75
2022/03/06 07:37:06;;;;;;;9.75;6.55;;;5.70;1.00;;;;;;5095264;28;20439;-76
2022/03/06 07:39:35;;;;;;;11.60;7.10;;;5.90;1.00;;;;;;5094037;28;20211;-75
2022/03/06 07:42:03;;;;;;;11.00;6.30;;;6.20;1.00;;;;;;5092768;28;20249;-76
2022/03/06 07:44:31;;;;;;;17.05;8.10;;;6.00;1.00;;;;;;5093539;28;20558;-76
2022/03/06 07:47:00;;;;;;;11.83;6.30;;;6.10;1.00;;;;;;5090368;28;20225;-75
2022/03/06 07:49:29;;;;;;;10.17;6.93;;;6.20;1.00;;;;;;5084320;28;20454;-76
2022/03/06 07:52:02;;;;;;;10.13;6.75;;;6.40;1.00;;;;;;5077561;28;20503;-76
2022/03/06 07:54:30;;;;;;;10.40;6.80;;;6.70;1.00;;;;;;5091065;28;20253;-76
2022/03/06 07:56:58;;;;;;;10.25;6.32;;;6.50;1.00;;;;;;5091712;28;20477;-75
2022/03/06 07:59:28;;;;;;;11.55;6.90;;;6.40;1.00;;;;;;5098604;28;20192;-76
2022/03/06 08:01:56;;;;;;;11.13;6.30;;;6.60;1.00;;;;;;5093948;28;20242;-78
2022/03/06 08:04:25;;;;;;;12.67;7.60;;;6.80;1.00;;;;;;5092148;28;20461;-75
2022/03/06 08:06:54;;;;;;;12.40;7.60;;;7.10;1.00;;;;;;5092618;28;20480;-77
2022/03/06 08:09:24;;;;;;;12.70;8.82;;;7.30;1.00;;;;;;5081647;28;20460;-77
2022/03/06 08:11:52;;;;;;;10.53;7.63;;;7.50;1.00;;;;;;5089542;28;20679;-77
2022/03/06 08:14:21;;;;;;;10.27;6.67;;;7.70;1.00;;;;;;5093186;28;20453;-76
2022/03/06 08:16:49;;;;;;;13.07;7.90;;;8.00;1.00;;;;;;5093085;28;20999;-76
2022/03/06 08:19:17;;;;;;;14.30;7.10;;;8.10;1.00;;;;;;5089346;28;20466;-77
2022/03/06 08:21:45;;;;;;;10.40;7.80;;;8.40;1.00;;;;;;5093540;28;20470;-77
2022/03/06 08:24:15;;;;;;;11.83;6.97;;;8.60;1.00;;;;;;5091429;28;20482;-77
2022/03/06 08:26:43;;;;;;;15.10;7.60;;;8.80;1.00;;;;;;5091300;28;20556;-77
2022/03/06 08:29:11;;;;;;;13.83;7.27;;;9.00;1.00;;;;;;5090265;28;20477;-78
2022/03/06 08:31:39;;;;;;;13.90;8.07;;;9.10;1.00;;;;;;5086634;28;20483;-76
2022/03/06 08:34:08;;;;;;;14.20;8.60;;;9.30;1.00;;;;;;5086748;28;20456;-77
2022/03/06 08:36:36;;;;;;;11.87;7.47;;;9.50;1.00;;;;;;5088427;28;20476;-77
2022/03/06 08:39:04;;;;;;;13.73;9.50;;;9.70;1.00;;;;;;5086699;28;20452;-77
2022/03/06 08:41:34;;;;;;;12.90;7.90;;;9.80;1.00;;;;;;5092033;28;20597;-77
2022/03/06 08:44:02;;;;;;;12.60;7.20;;;9.90;1.00;;;;;;5094578;27;20453;-76
2022/03/06 08:46:30;;;;;;;11.20;7.60;;;10.10;1.00;;;;;;5084687;28;20475;-77
2022/03/06 08:48:59;;;;;;;11.47;7.23;;;10.30;1.00;;;;;;5081910;28;20449;-77
2022/03/06 08:51:27;;;;;;;13.63;8.27;;;10.40;1.00;;;;;;5083206;28;20455;-75
2022/03/06 08:53:55;;;;;;;10.40;6.70;;;10.40;1.00;;;;;;5084536;28;20533;-77
2022/03/06 08:56:23;;;;;;;8.70;6.97;;;10.50;1.00;;;;;;5090341;28;20465;-77
2022/03/06 08:58:52;;;;;;;12.57;7.23;;;10.70;1.00;;;;;;5078286;28;20466;-77
2022/03/06 09:01:21;;;;;;;12.03;7.97;;;10.80;1.00;;;;;;5083610;28;20543;-76
2022/03/06 09:03:49;;;;;;;11.10;6.87;;;10.80;1.00;;;;;;5077029;28;20461;-76
2022/03/06 09:06:18;;;;;;;10.23;7.20;;;10.90;1.00;;;;;;5089088;28;20484;-76
2022/03/06 09:08:46;;;;;;;10.90;7.60;;;11.00;1.00;;;;;;5083517;28;20475;-77
2022/03/06 09:11:14;;;;;;;10.93;7.03;;;11.00;1.00;;;;;;5090402;28;20487;-77
2022/03/06 09:13:42;;;;;;;13.13;7.20;;;11.10;1.00;;;;;;5081071;28;20466;-76
2022/03/06 09:16:12;;;;;;;9.73;6.60;;;11.10;1.00;;;;;;5083403;28;20465;-77
2022/03/06 09:18:40;;;;;;;11.13;7.27;;;10.90;1.00;;;;;;5082149;28;21247;-77
2022/03/06 09:21:08;;;;;;;11.30;6.83;;;10.70;1.00;;;;;;5082866;28;20513;-77
2022/03/06 09:23:36;;;;;;;13.50;7.40;;;11.00;1.00;;;;;;5088624;28;20461;-77
2022/03/06 09:26:04;;;;;;;13.10;6.50;;;11.00;1.00;;;;;;5083751;28;21005;-76
2022/03/06 09:28:35;;;;;;;11.80;8.07;;;11.30;1.00;;;;;;5079934;28;21009;-77
2022/03/06 09:31:03;;;;;;;12.63;6.47;;;11.70;1.00;;;;;;5080903;28;20805;-76
2022/03/06 09:33:33;;;;;;;10.53;6.07;;;12.10;1.00;;;;;;5084137;28;20445;-77
2022/03/06 09:36:02;;;;;;;8.77;6.40;;;12.30;1.00;;;;;;5077748;28;20475;-75
2022/03/06 09:38:30;;;;;;;9.57;6.30;;;12.50;1.00;;;;;;5082886;28;20488;-78
2022/03/06 09:41:04;;;;;;;8.23;5.43;;;12.60;1.00;;;;;;5084181;28;20442;-75
2022/03/06 09:43:33;;;;;;;9.73;6.50;;;12.70;1.00;;;;;;5078897;28;20877;-75
2022/03/06 09:46:06;;;;;;;9.87;5.10;;;12.90;1.00;;;;;;5083627;28;20532;-76
2022/03/06 09:48:35;;;;;;;8.47;6.23;;;13.00;1.00;;;;;;5083754;28;20555;-74
2022/03/06 09:51:05;;;;;;;9.70;5.90;;;13.00;1.00;;;;;;5080536;28;20909;-76
2022/03/06 09:53:33;;;;;;;11.53;7.20;;;12.80;1.00;;;;;;5086120;28;20452;-75
2022/03/06 09:56:02;;;;;;;9.30;6.00;;;12.70;1.00;;;;;;5083214;28;20479;-77
2022/03/06 09:58:30;;;;;;;9.17;6.13;;;12.70;1.00;;;;;;5078599;28;20459;-77
2022/03/06 10:00:58;;;;;;;8.83;5.90;;;12.90;1.00;;;;;;5081707;28;20444;-78
2022/03/06 10:03:27;;;;;;;8.43;5.53;;;12.70;1.00;;;;;;5078437;28;20534;-74
2022/03/06 10:05:57;;;;;;;8.90;6.30;;;12.60;1.00;;;;;;5075726;28;20525;-76
2022/03/06 10:08:26;;;;;;;9.57;6.40;;;12.80;1.00;;;;;;5081437;28;21100;-75
2022/03/06 10:10:57;;;;;;;9.07;6.40;;;12.90;1.00;;;;;;5075135;28;20531;-77
2022/03/06 10:13:29;;;;;;;9.00;6.57;;;13.00;1.00;;;;;;5078792;28;20470;-74
2022/03/06 10:16:10;;;;;;;11.00;7.67;;;12.80;1.00;;;;;;5077896;28;20491;-74
2022/03/06 10:18:40;;;;;;;11.37;6.93;;;12.40;1.00;;;;;;5082240;28;21207;-77
2022/03/06 10:21:19;;;;;;;7.07;5.77;;;12.40;1.00;;;;;;5079377;28;20455;-78
2022/03/06 10:23:49;;;;;;;8.70;7.30;;;12.80;1.00;;;;;;5083560;28;20494;-80
2022/03/06 10:26:19;;;;;;;11.20;7.07;;;13.10;1.00;;;;;;5083613;28;20475;-78
2022/03/06 10:28:51;;;;;;;10.57;6.73;;;13.60;1.00;;;;;;5083839;28;20456;-80
2022/03/06 10:31:20;;;;;;;9.80;6.20;;;13.70;1.00;;;;;;5078424;28;20444;-77
2022/03/06 10:34:02;;;;;;;12.30;7.43;;;14.10;1.00;;;;;;5086337;28;20455;-80
2022/03/06 10:36:33;;;;;;;9.00;6.50;;;14.10;1.00;;;;;;5080695;28;20503;-81
2022/03/06 10:39:03;;;;;;;8.33;7.47;;;14.30;1.00;;;;;;5085925;28;20456;-80
2022/03/06 10:41:36;;;;;;;10.40;7.00;;;14.40;1.00;;;;;;5083282;28;20457;-77
2022/03/06 10:44:05;;;;;;;9.90;7.20;;;14.40;1.00;;;;;;5081717;28;20516;-78
2022/03/06 10:46:35;;;;;;;11.27;6.90;;;14.40;1.00;;;;;;5084275;28;20484;-78
2022/03/06 10:49:12;;;;;;;10.93;6.80;;;14.50;1.00;;;;;;5080745;28;20581;-78
2022/03/06 10:51:44;;;;;;;10.93;6.90;;;14.80;1.00;;;;;;5083476;28;20456;-78
2022/03/06 10:54:14;;;;;;;7.57;5.97;;;15.10;1.00;;;;;;5083157;28;20479;-78
2022/03/06 10:56:44;;;;;;;11.53;7.07;;;15.40;1.00;;;;;;5089223;28;20486;-80
2022/03/06 10:59:19;;;;;;;9.73;7.23;;;15.50;1.00;;;;;;5079924;28;20440;-79
2022/03/06 11:01:48;;;;;;;9.73;6.60;;;15.70;1.00;;;;;;5087300;28;20528;-81
2022/03/06 11:04:18;;;;;;;9.50;7.50;;;15.80;1.00;;;;;;5080020;28;20586;-83
2022/03/06 11:06:51;;;;;;;9.73;7.03;;;15.60;1.00;;;;;;5081211;28;20465;-83
2022/03/06 11:09:20;;;;;;;8.73;6.37;;;15.20;1.00;;;;;;5081908;28;20461;-80
2022/03/06 11:11:51;;;;;;;9.50;7.50;;;14.70;1.00;;;;;;5074672;28;20448;-77
2022/03/06 11:14:20;;;;;;;8.73;6.00;;;14.20;1.00;;;;;;5078057;28;20459;-79
2022/03/06 11:16:48;;;;;;;9.27;6.40;;;13.90;1.00;;;;;;5082220;28;20820;-77
2022/03/06 11:19:17;;;;;;;7.80;6.57;;;13.40;1.00;;;;;;5083061;28;20537;-79
2022/03/06 11:21:50;;;;;;;10.03;7.10;;;13.00;1.00;;;;;;5082596;28;20468;-78
2022/03/06 11:24:21;;;;;;;10.50;7.27;;;12.80;1.00;;;;;;5082240;28;20499;-78
2022/03/06 11:27:24;;;;;;;12.70;6.80;;;12.70;1.00;;;;;;5080161;28;20469;-79
2022/03/06 11:30:03;;;;;;;10.40;7.60;;;12.50;1.00;;;;;;5084699;28;20526;-77
2022/03/06 11:32:35;;;;;;;10.47;7.70;;;12.80;1.00;;;;;;5080472;28;21007;-79
2022/03/06 11:35:10;;;;;;;9.40;6.53;;;12.80;1.00;;;;;;5081528;28;22742;-78
2022/03/06 11:37:55;;;;;;;10.90;6.83;;;12.60;1.00;;;;;;5079691;28;20473;-76
2022/03/06 11:40:45;;;;;;;10.77;6.40;;;12.30;1.00;;;;;;5077908;28;20449;-77
2022/03/06 11:43:29;;;;;;;9.67;7.27;;;12.50;1.00;;;;;;5084645;28;20805;-78
2022/03/06 11:46:12;;;;;;;9.10;5.97;;;12.60;1.00;;;;;;5083592;28;20507;-77
2022/03/06 11:49:07;;;;;;;10.73;7.10;;;12.40;1.00;;;;;;5081693;28;20478;-77
2022/03/06 11:51:46;;;;;;;8.47;6.17;;;12.20;1.00;;;;;;5047373;28;20553;-77
2022/03/06 11:54:21;;;;;;;7.17;5.57;;;12.10;1.00;;;;;;5081476;28;20455;-78
2022/03/06 11:56:57;;;;;;;17.47;9.00;;;12.00;1.00;;;;;;5079378;28;21025;-78
2022/03/06 11:59:46;;;;;;;9.77;6.73;;;12.10;1.00;;;;;;5096269;28;20458;-79
2022/03/06 12:02:19;;;;;;;7.53;5.77;;;12.00;1.00;;;;;;5085674;28;20444;-77
2022/03/06 12:04:54;;;;;;;8.43;7.47;;;11.90;1.00;;;;;;5082888;28;20537;-77
2022/03/06 12:07:25;;;;;;;9.40;6.23;;;11.80;1.00;;;;;;5081457;28;20475;-77
2022/03/06 12:09:56;;;;;;;10.83;6.50;;;11.70;1.00;;;;;;5079882;28;20535;-78
2022/03/06 12:12:25;;;;;;;8.73;6.13;;;11.70;1.00;;;;;;5088838;28;20527;-79
2022/03/06 12:14:56;;;;;;;6.00;5.03;;;11.60;1.00;;;;;;5085659;28;20488;-78
2022/03/06 12:17:36;;;;;;;10.13;6.83;;;11.50;1.00;;;;;;5086743;28;20505;-78
2022/03/06 12:20:25;;;;;;;9.00;5.70;;;11.60;1.00;;;;;;5084143;28;20501;-77
2022/03/06 12:22:57;;;;;;;9.37;6.00;;;11.70;1.00;;;;;;5083342;28;20458;-78
2022/03/06 12:25:31;;;;;;;8.50;7.17;;;11.90;1.00;;;;;;5088238;28;21092;-79
2022/03/06 12:28:24;;;;;;;8.33;5.93;;;11.90;1.00;;;;;;5086229;28;20547;-77
2022/03/06 12:30:53;;;;;;;7.47;5.83;;;11.90;1.00;;;;;;5092966;28;20522;-77
2022/03/06 12:33:34;;;;;;;6.20;5.23;;;11.80;1.00;;;;;;5087988;28;20454;-78
2022/03/06 12:36:14;;;;;;;6.03;5.23;;;11.90;1.00;;;;;;5091390;28;20534;-80
2022/03/06 12:38:42;;;;;;;11.63;7.53;;;11.80;1.00;;;;;;5095838;28;20815;-80
2022/03/06 12:41:12;;;;;;;7.70;5.93;;;12.00;1.00;;;;;;5088015;28;20966;-82
2022/03/06 12:43:47;;;;;;;8.90;5.50;;;12.10;1.00;;;;;;5082996;28;20981;-79
2022/03/06 12:46:18;;;;;;;9.20;5.67;;;12.20;1.00;;;;;;5092702;28;21032;-80
2022/03/06 12:48:48;;;;;;;8.47;5.97;;;12.30;1.00;;;;;;5089924;28;20458;-81
2022/03/06 12:51:38;;;;;;;10.30;6.37;;;12.10;1.00;;;;;;5083066;28;20455;-77
2022/03/06 12:54:18;;;;;;;9.87;5.83;;;11.80;1.00;;;;;;5093120;28;20485;-78
2022/03/06 12:56:48;;;;;;;8.50;5.10;;;11.90;1.00;;;;;;5086000;28;20523;-78
2022/03/06 12:59:18;;;;;;;5.97;4.77;;;12.10;1.00;;;;;;5088314;28;20457;-78
2022/03/06 13:01:48;;;;;;;6.10;5.00;;;12.00;1.00;;;;;;5090167;28;20453;-78
2022/03/06 13:04:18;;;;;;;11.60;5.33;;;11.90;1.00;;;;;;5090422;28;20495;-78
2022/03/06 13:06:46;;;;;;;6.50;4.73;;;12.00;1.00;;;;;;5084913;28;20479;-79
2022/03/06 13:09:27;;;;;;;6.10;4.33;;;12.10;1.00;;;;;;5088853;28;20450;-78
2022/03/06 13:11:59;;;;;;;7.53;5.40;;;12.20;1.00;;;;;;5086524;28;20533;-77
2022/03/06 13:14:34;;;;;;;8.30;5.67;;;12.40;1.00;;;;;;5081355;28;20457;-78